Kidwelly, United Kingdom

7:58 AM BST on September 22, 2014 (GMT +0100)
Ffos las | Change Station
CLOSE
Current Station
Personal Weather Station
Location: Carway, CARMARTHENSHIRE
Elevation: 223 ft
Nearby Weather Stations

Elev 223 ft 51.73 °N, 4.23 °W | Updated 6 minutes ago

Fog
Fog
48.6 °F
Feels Like 49 °F
N
0.0
Wind Variable Wind from SE
Gusts 0.0 mph

Today
High -- | Low -- °F
--% Chance of Precip.
Yesterday
High -- | Low -- °F
Precip. -- in
7:03 AM 7:16 PM
Waning Crescent, 4% visible
Pressure 30.33 in
Visibility 5.6 miles
Clouds
Windchill 49 °F
Dew Point 34 °F
Humidity 56%
Rainfall 0.00 in
Snow Depth Not available.
UV Not available.
Pollen Not available.
Air Quality Not available.
Flu Activity Not available.
METAR EGFF 220650Z 02004KT 9000 VCFG NSC 08/07 Q1027

More Conditions Fewer Conditions

Pressure 30.33 in
Visibility 5.6 miles
Clouds
Windchill 49 °F
Dew Point 34 °F
Humidity 56%
Rainfall 0.00 in
Snow Depth Not available.
UV Not available.
Pollen Not available.
Air Quality Not available.
Flu Activity Not available.
METAR EGFF 220650Z 02004KT 9000 VCFG NSC 08/07 Q1027

More Conditions Fewer Conditions

10-Day Weather Forecast

Almanac

Astronomy

Sep. 22, 2014 Rise Set
Actual Time 7:03 AM BST 7:16 PM BST
Civil Twilight 6:29 AM BST 7:49 PM BST
Nautical Twilight 5:50 AM BST 8:29 PM BST
Astronomical Twilight 5:08 AM BST 9:10 PM BST
Moon 5:09 AM BST 6:21 PM BST
Length of Visible Light 13h 19m
Length of Day
12h 12m
Tomorrow will be 3m 56s shorter.
Waning Crescent, 4% of the Moon is Illuminated
Today
Waning Crescent
Sep 24
New
Oct 1
First Quarter
Oct 8
Full
Oct 15
Last Quarter

Yesterday's Extremes

Country Highs Country Lows

Community

WunderPhotos

Upload Photos

1,755,392 photos uploaded!

Nearby

Snow Depth

Not available.

Earthquake Activity

City Distance Mag. Time & Date
No recent earthquake activity has been reported nearby.
Minimum magnitude displayed is 2.5.

Coastal Water Temperatures

Place Temperature
No Stations Reporting

Nearby Weather Stations